sensor_id;sensor_type;location;lat;lon;timestamp;pressure;altitude;pressure_sealevel;temperature;humidity
67740;BME280;54536;50.090;14.420;2023-09-19T00:00:41;98838.38;;;21.88;61.53
67740;BME280;54536;50.090;14.420;2023-09-19T00:03:27;98842.50;;;21.84;61.08
67740;BME280;54536;50.090;14.420;2023-09-19T00:05:54;98846.06;;;21.78;60.58
67740;BME280;54536;50.090;14.420;2023-09-19T00:08:21;98842.88;;;21.69;60.20
67740;BME280;54536;50.090;14.420;2023-09-19T00:10:51;98844.16;;;21.66;60.10
67740;BME280;54536;50.090;14.420;2023-09-19T00:13:19;98849.50;;;21.66;60.01
67740;BME280;54536;50.090;14.420;2023-09-19T00:15:47;98850.38;;;21.60;59.93
67740;BME280;54536;50.090;14.420;2023-09-19T00:18:20;98843.09;;;21.67;59.53
67740;BME280;54536;50.090;14.420;2023-09-19T00:20:47;98852.47;;;21.58;59.29
67740;BME280;54536;50.090;14.420;2023-09-19T00:23:17;98848.06;;;21.45;59.54
67740;BME280;54536;50.090;14.420;2023-09-19T00:25:45;98865.31;;;21.49;59.17
67740;BME280;54536;50.090;14.420;2023-09-19T00:28:11;98862.50;;;21.63;58.98
67740;BME280;54536;50.090;14.420;2023-09-19T00:30:37;98864.94;;;21.64;58.78
67740;BME280;54536;50.090;14.420;2023-09-19T00:33:05;98863.84;;;21.72;58.87
67740;BME280;54536;50.090;14.420;2023-09-19T00:35:33;98868.78;;;21.75;58.62
67740;BME280;54536;50.090;14.420;2023-09-19T00:38:00;98873.34;;;21.68;58.90
67740;BME280;54536;50.090;14.420;2023-09-19T00:40:27;98871.47;;;21.50;59.27
67740;BME280;54536;50.090;14.420;2023-09-19T00:42:57;98874.16;;;21.50;59.25
67740;BME280;54536;50.090;14.420;2023-09-19T00:45:25;98868.22;;;21.66;58.89
67740;BME280;54536;50.090;14.420;2023-09-19T00:47:52;98873.81;;;21.65;59.09
67740;BME280;54536;50.090;14.420;2023-09-19T00:50:21;98872.91;;;21.53;58.83
67740;BME280;54536;50.090;14.420;2023-09-19T00:52:49;98874.59;;;21.47;59.18
67740;BME280;54536;50.090;14.420;2023-09-19T00:55:17;98873.91;;;21.51;58.78
67740;BME280;54536;50.090;14.420;2023-09-19T00:57:47;98870.59;;;21.56;58.43
67740;BME280;54536;50.090;14.420;2023-09-19T01:00:15;98867.91;;;21.56;58.81
67740;BME280;54536;50.090;14.420;2023-09-19T01:02:43;98868.53;;;21.58;58.56
67740;BME280;54536;50.090;14.420;2023-09-19T01:05:10;98859.88;;;21.56;58.78
67740;BME280;54536;50.090;14.420;2023-09-19T01:07:38;98858.41;;;21.35;59.20
67740;BME280;54536;50.090;14.420;2023-09-19T01:10:18;98860.88;;;21.37;59.19
67740;BME280;54536;50.090;14.420;2023-09-19T01:20:40;98859.50;;;21.27;59.50
67740;BME280;54536;50.090;14.420;2023-09-19T01:23:23;98862.22;;;21.21;59.25
67740;BME280;54536;50.090;14.420;2023-09-19T01:26:07;98861.59;;;21.19;59.44
67740;BME280;54536;50.090;14.420;2023-09-19T01:29:17;98859.59;;;21.14;59.51
67740;BME280;54536;50.090;14.420;2023-09-19T01:31:59;98857.78;;;21.08;59.70
67740;BME280;54536;50.090;14.420;2023-09-19T01:34:27;98841.66;;;20.96;60.07
67740;BME280;54536;50.090;14.420;2023-09-19T01:37:12;98851.72;;;20.94;59.90
67740;BME280;54536;50.090;14.420;2023-09-19T01:39:41;98844.88;;;21.05;59.82
67740;BME280;54536;50.090;14.420;2023-09-19T01:45:11;98847.09;;;21.08;59.66
67740;BME280;54536;50.090;14.420;2023-09-19T01:47:48;98847.09;;;21.08;59.43
67740;BME280;54536;50.090;14.420;2023-09-19T01:53:14;98852.78;;;20.93;59.78
67740;BME280;54536;50.090;14.420;2023-09-19T01:55:47;98841.84;;;20.95;59.79
67740;BME280;54536;50.090;14.420;2023-09-19T01:58:29;98845.81;;;20.86;60.15
67740;BME280;54536;50.090;14.420;2023-09-19T02:01:00;98843.00;;;20.80;60.36
67740;BME280;54536;50.090;14.420;2023-09-19T02:03:28;98847.53;;;20.80;60.46
67740;BME280;54536;50.090;14.420;2023-09-19T02:05:55;98851.16;;;20.86;60.35
67740;BME280;54536;50.090;14.420;2023-09-19T02:08:22;98848.69;;;20.91;60.12
67740;BME280;54536;50.090;14.420;2023-09-19T02:10:52;98843.38;;;20.84;60.21
67740;BME280;54536;50.090;14.420;2023-09-19T02:13:20;98847.06;;;20.90;59.92
67740;BME280;54536;50.090;14.420;2023-09-19T02:15:47;98841.91;;;20.88;60.06
67740;BME280;54536;50.090;14.420;2023-09-19T02:18:14;98832.25;;;20.87;59.96
67740;BME280;54536;50.090;14.420;2023-09-19T02:20:41;98833.88;;;20.88;59.88
67740;BME280;54536;50.090;14.420;2023-09-19T02:23:07;98834.53;;;20.84;60.04
67740;BME280;54536;50.090;14.420;2023-09-19T02:25:34;98833.84;;;20.95;59.90
67740;BME280;54536;50.090;14.420;2023-09-19T02:28:01;98838.81;;;20.91;60.04
67740;BME280;54536;50.090;14.420;2023-09-19T02:30:29;98835.94;;;20.93;59.98
67740;BME280;54536;50.090;14.420;2023-09-19T02:32:56;98839.19;;;20.95;59.75
67740;BME280;54536;50.090;14.420;2023-09-19T02:35:22;98840.81;;;20.96;60.07
67740;BME280;54536;50.090;14.420;2023-09-19T02:37:48;98840.44;;;20.92;60.03
67740;BME280;54536;50.090;14.420;2023-09-19T02:40:15;98838.50;;;21.06;59.46
67740;BME280;54536;50.090;14.420;2023-09-19T02:42:55;98837.75;;;20.92;59.78
67740;BME280;54536;50.090;14.420;2023-09-19T02:45:22;98832.78;;;20.96;59.66
67740;BME280;54536;50.090;14.420;2023-09-19T02:47:49;98845.09;;;21.03;59.14
67740;BME280;54536;50.090;14.420;2023-09-19T02:50:16;98835.41;;;21.02;59.22
67740;BME280;54536;50.090;14.420;2023-09-19T02:52:44;98831.63;;;21.17;58.62
67740;BME280;54536;50.090;14.420;2023-09-19T02:55:16;98835.53;;;21.14;58.72
67740;BME280;54536;50.090;14.420;2023-09-19T02:57:49;98830.03;;;21.09;58.86
67740;BME280;54536;50.090;14.420;2023-09-19T03:00:18;98832.44;;;21.17;58.51
67740;BME280;54536;50.090;14.420;2023-09-19T03:02:52;98836.41;;;21.08;58.94
67740;BME280;54536;50.090;14.420;2023-09-19T03:05:20;98820.75;;;21.12;58.97
67740;BME280;54536;50.090;14.420;2023-09-19T03:07:47;98825.66;;;20.90;59.48
67740;BME280;54536;50.090;14.420;2023-09-19T03:10:21;98836.75;;;20.93;59.43
67740;BME280;54536;50.090;14.420;2023-09-19T03:12:48;98841.28;;;20.93;59.35
67740;BME280;54536;50.090;14.420;2023-09-19T03:15:15;98843.16;;;20.86;59.80
67740;BME280;54536;50.090;14.420;2023-09-19T03:17:44;98842.09;;;20.93;59.18
67740;BME280;54536;50.090;14.420;2023-09-19T03:20:12;98833.97;;;21.07;59.06
67740;BME280;54536;50.090;14.420;2023-09-19T03:22:43;98845.69;;;21.05;58.84
67740;BME280;54536;50.090;14.420;2023-09-19T03:25:10;98840.56;;;21.04;58.97
67740;BME280;54536;50.090;14.420;2023-09-19T03:27:38;98847.00;;;20.96;59.13
67740;BME280;54536;50.090;14.420;2023-09-19T03:30:05;98845.16;;;20.97;59.16
67740;BME280;54536;50.090;14.420;2023-09-19T03:32:37;98846.09;;;21.02;59.16
67740;BME280;54536;50.090;14.420;2023-09-19T03:35:09;98849.34;;;21.11;58.57
67740;BME280;54536;50.090;14.420;2023-09-19T03:37:41;98848.56;;;21.04;59.02
67740;BME280;54536;50.090;14.420;2023-09-19T03:40:09;98843.22;;;21.04;59.11
67740;BME280;54536;50.090;14.420;2023-09-19T03:42:40;98844.59;;;21.13;58.98
67740;BME280;54536;50.090;14.420;2023-09-19T03:45:07;98848.53;;;21.11;59.09
67740;BME280;54536;50.090;14.420;2023-09-19T03:47:38;98843.06;;;20.99;59.38
67740;BME280;54536;50.090;14.420;2023-09-19T03:50:06;98842.41;;;21.03;59.14
67740;BME280;54536;50.090;14.420;2023-09-19T03:52:36;98844.72;;;21.00;59.36
67740;BME280;54536;50.090;14.420;2023-09-19T03:55:03;98848.63;;;20.97;59.37
67740;BME280;54536;50.090;14.420;2023-09-19T03:57:32;98853.16;;;20.97;59.51
67740;BME280;54536;50.090;14.420;2023-09-19T04:00:01;98852.13;;;20.98;59.58
67740;BME280;54536;50.090;14.420;2023-09-19T04:02:28;98852.88;;;21.05;59.26
67740;BME280;54536;50.090;14.420;2023-09-19T04:04:59;98861.13;;;21.03;59.64
67740;BME280;54536;50.090;14.420;2023-09-19T04:07:25;98862.13;;;21.09;59.20
67740;BME280;54536;50.090;14.420;2023-09-19T04:09:55;98873.06;;;21.01;59.85
67740;BME280;54536;50.090;14.420;2023-09-19T04:12:21;98877.38;;;21.02;59.66
67740;BME280;54536;50.090;14.420;2023-09-19T04:14:47;98873.06;;;21.01;59.72
67740;BME280;54536;50.090;14.420;2023-09-19T04:17:14;98866.53;;;20.97;59.57
67740;BME280;54536;50.090;14.420;2023-09-19T04:19:40;98878.22;;;20.96;59.77
67740;BME280;54536;50.090;14.420;2023-09-19T04:22:07;98876.66;;;20.88;60.33
67740;BME280;54536;50.090;14.420;2023-09-19T04:24:33;98881.88;;;20.76;60.42
67740;BME280;54536;50.090;14.420;2023-09-19T04:27:00;98892.69;;;20.88;60.16
67740;BME280;54536;50.090;14.420;2023-09-19T04:29:27;98894.88;;;20.98;60.25
67740;BME280;54536;50.090;14.420;2023-09-19T04:31:56;98892.06;;;20.93;60.09
67740;BME280;54536;50.090;14.420;2023-09-19T04:34:25;98902.56;;;20.88;60.36
67740;BME280;54536;50.090;14.420;2023-09-19T04:36:51;98899.56;;;21.02;60.12
67740;BME280;54536;50.090;14.420;2023-09-19T04:39:19;98903.69;;;21.05;59.65
67740;BME280;54536;50.090;14.420;2023-09-19T04:41:45;98904.75;;;20.97;59.96
67740;BME280;54536;50.090;14.420;2023-09-19T04:44:12;98902.28;;;20.96;60.25
67740;BME280;54536;50.090;14.420;2023-09-19T04:46:39;98910.81;;;20.79;60.68
67740;BME280;54536;50.090;14.420;2023-09-19T04:49:05;98917.78;;;20.87;60.31
67740;BME280;54536;50.090;14.420;2023-09-19T04:51:32;98916.69;;;20.95;60.22
67740;BME280;54536;50.090;14.420;2023-09-19T04:54:00;98917.41;;;20.84;60.54
67740;BME280;54536;50.090;14.420;2023-09-19T04:56:27;98935.25;;;20.90;60.17
67740;BME280;54536;50.090;14.420;2023-09-19T04:58:54;98932.38;;;20.85;60.34
67740;BME280;54536;50.090;14.420;2023-09-19T05:01:21;98929.03;;;20.96;60.17
67740;BME280;54536;50.090;14.420;2023-09-19T05:03:49;98946.91;;;20.95;60.30
67740;BME280;54536;50.090;14.420;2023-09-19T05:06:21;98945.31;;;20.88;60.26
67740;BME280;54536;50.090;14.420;2023-09-19T05:08:49;98941.53;;;21.02;60.36
67740;BME280;54536;50.090;14.420;2023-09-19T05:11:19;98946.44;;;21.05;60.03
67740;BME280;54536;50.090;14.420;2023-09-19T05:13:50;98937.66;;;20.98;60.18
67740;BME280;54536;50.090;14.420;2023-09-19T05:16:16;98958.69;;;20.88;60.33
67740;BME280;54536;50.090;14.420;2023-09-19T05:18:43;98952.13;;;20.84;60.16
67740;BME280;54536;50.090;14.420;2023-09-19T05:21:09;98946.41;;;20.80;60.46
67740;BME280;54536;50.090;14.420;2023-09-19T05:23:35;98953.06;;;20.96;60.25
67740;BME280;54536;50.090;14.420;2023-09-19T05:26:02;98953.50;;;20.99;60.20
67740;BME280;54536;50.090;14.420;2023-09-19T05:28:30;98958.28;;;20.84;60.22
67740;BME280;54536;50.090;14.420;2023-09-19T05:30:56;98955.84;;;20.76;60.45
67740;BME280;54536;50.090;14.420;2023-09-19T05:33:22;98961.78;;;20.85;60.62
67740;BME280;54536;50.090;14.420;2023-09-19T05:35:48;98957.91;;;20.80;60.46
67740;BME280;54536;50.090;14.420;2023-09-19T05:38:15;98961.00;;;20.77;60.59
67740;BME280;54536;50.090;14.420;2023-09-19T05:40:45;98965.31;;;20.78;60.78
67740;BME280;54536;50.090;14.420;2023-09-19T05:43:15;98969.41;;;20.81;60.58
67740;BME280;54536;50.090;14.420;2023-09-19T05:45:41;98973.31;;;20.78;60.57
67740;BME280;54536;50.090;14.420;2023-09-19T05:48:12;98971.25;;;20.87;60.43
67740;BME280;54536;50.090;14.420;2023-09-19T05:50:42;98969.16;;;20.89;60.17
67740;BME280;54536;50.090;14.420;2023-09-19T05:53:09;98967.56;;;20.81;60.42
67740;BME280;54536;50.090;14.420;2023-09-19T05:55:38;98967.22;;;20.65;61.01
67740;BME280;54536;50.090;14.420;2023-09-19T05:58:05;98967.41;;;20.76;60.64
67740;BME280;54536;50.090;14.420;2023-09-19T06:00:31;98967.38;;;20.70;60.83
67740;BME280;54536;50.090;14.420;2023-09-19T06:02:59;98965.72;;;20.75;60.64
67740;BME280;54536;50.090;14.420;2023-09-19T06:05:26;98971.28;;;20.80;60.54
67740;BME280;54536;50.090;14.420;2023-09-19T06:07:53;98985.63;;;20.86;60.34
67740;BME280;54536;50.090;14.420;2023-09-19T06:10:20;98988.91;;;20.88;59.97
67740;BME280;54536;50.090;14.420;2023-09-19T06:12:51;98996.50;;;20.91;60.18
67740;BME280;54536;50.090;14.420;2023-09-19T06:15:17;99005.09;;;21.00;59.75
67740;BME280;54536;50.090;14.420;2023-09-19T06:17:54;99006.19;;;20.86;60.26
67740;BME280;54536;50.090;14.420;2023-09-19T06:20:28;99011.31;;;20.87;59.87
67740;BME280;54536;50.090;14.420;2023-09-19T06:22:55;99019.13;;;20.89;59.64
67740;BME280;54536;50.090;14.420;2023-09-19T06:25:21;99023.50;;;20.76;60.20
67740;BME280;54536;50.090;14.420;2023-09-19T06:27:52;99025.06;;;20.97;59.53
67740;BME280;54536;50.090;14.420;2023-09-19T06:30:20;99027.72;;;20.97;59.74
67740;BME280;54536;50.090;14.420;2023-09-19T06:32:47;99036.41;;;20.86;59.96
67740;BME280;54536;50.090;14.420;2023-09-19T06:35:15;99028.53;;;20.98;59.46
67740;BME280;54536;50.090;14.420;2023-09-19T06:37:43;99046.22;;;20.99;59.74
67740;BME280;54536;50.090;14.420;2023-09-19T06:40:13;99047.03;;;21.06;59.25
67740;BME280;54536;50.090;14.420;2023-09-19T06:42:45;99047.94;;;20.87;59.96
67740;BME280;54536;50.090;14.420;2023-09-19T06:45:13;99051.72;;;21.11;59.31
67740;BME280;54536;50.090;14.420;2023-09-19T06:47:45;99056.47;;;21.02;59.44
67740;BME280;54536;50.090;14.420;2023-09-19T06:50:11;99057.31;;;21.09;59.31
67740;BME280;54536;50.090;14.420;2023-09-19T06:52:41;99048.66;;;21.07;59.55
67740;BME280;54536;50.090;14.420;2023-09-19T06:55:08;99053.19;;;21.07;59.49
67740;BME280;54536;50.090;14.420;2023-09-19T06:57:36;99056.84;;;21.12;59.58
67740;BME280;54536;50.090;14.420;2023-09-19T07:00:02;99060.78;;;21.10;59.46
67740;BME280;54536;50.090;14.420;2023-09-19T07:02:30;99064.03;;;21.18;59.07
67740;BME280;54536;50.090;14.420;2023-09-19T07:04:56;99066.31;;;21.15;59.14
67740;BME280;54536;50.090;14.420;2023-09-19T07:07:23;99073.88;;;21.24;59.03
67740;BME280;54536;50.090;14.420;2023-09-19T07:09:49;99066.03;;;21.36;58.80
67740;BME280;54536;50.090;14.420;2023-09-19T07:12:17;99065.00;;;21.37;58.51
67740;BME280;54536;50.090;14.420;2023-09-19T07:14:46;99070.31;;;21.44;58.15
67740;BME280;54536;50.090;14.420;2023-09-19T07:17:15;99071.94;;;21.45;58.18
67740;BME280;54536;50.090;14.420;2023-09-19T07:19:44;99075.38;;;21.59;57.82
67740;BME280;54536;50.090;14.420;2023-09-19T07:22:11;99076.00;;;21.54;57.71
67740;BME280;54536;50.090;14.420;2023-09-19T07:24:37;99079.50;;;21.55;57.82
67740;BME280;54536;50.090;14.420;2023-09-19T07:27:05;99084.19;;;21.66;57.56
67740;BME280;54536;50.090;14.420;2023-09-19T07:29:31;99081.47;;;21.72;57.44
67740;BME280;54536;50.090;14.420;2023-09-19T07:31:57;99086.97;;;21.78;57.23
67740;BME280;54536;50.090;14.420;2023-09-19T07:34:23;99077.69;;;21.80;57.20
67740;BME280;54536;50.090;14.420;2023-09-19T07:36:50;99093.97;;;21.79;56.99
67740;BME280;54536;50.090;14.420;2023-09-19T07:39:16;99092.72;;;21.81;56.75
67740;BME280;54536;50.090;14.420;2023-09-19T07:41:43;99098.34;;;21.73;56.94
67740;BME280;54536;50.090;14.420;2023-09-19T07:44:09;99089.78;;;21.89;56.87
67740;BME280;54536;50.090;14.420;2023-09-19T07:46:36;99085.84;;;21.92;56.61
67740;BME280;54536;50.090;14.420;2023-09-19T07:49:02;99082.75;;;21.95;56.39
67740;BME280;54536;50.090;14.420;2023-09-19T07:51:29;99092.03;;;21.92;56.41
67740;BME280;54536;50.090;14.420;2023-09-19T07:53:55;99093.66;;;21.93;56.34
67740;BME280;54536;50.090;14.420;2023-09-19T07:56:24;99102.06;;;21.97;55.88
67740;BME280;54536;50.090;14.420;2023-09-19T07:58:53;99100.88;;;21.93;56.18
67740;BME280;54536;50.090;14.420;2023-09-19T08:01:19;99111.63;;;21.86;56.26
67740;BME280;54536;50.090;14.420;2023-09-19T08:03:46;99107.59;;;22.02;55.75
67740;BME280;54536;50.090;14.420;2023-09-19T08:06:12;99103.81;;;22.10;55.37
67740;BME280;54536;50.090;14.420;2023-09-19T08:08:41;99103.25;;;22.08;55.69
67740;BME280;54536;50.090;14.420;2023-09-19T08:11:07;99105.78;;;22.28;55.50
67740;BME280;54536;50.090;14.420;2023-09-19T08:13:39;99113.22;;;22.26;54.82
67740;BME280;54536;50.090;14.420;2023-09-19T08:16:15;99116.69;;;22.26;54.13
67740;BME280;54536;50.090;14.420;2023-09-19T08:18:42;99114.34;;;22.36;54.14
67740;BME280;54536;50.090;14.420;2023-09-19T08:21:11;99111.91;;;22.35;54.51
67740;BME280;54536;50.090;14.420;2023-09-19T08:23:38;99114.16;;;22.38;54.29
67740;BME280;54536;50.090;14.420;2023-09-19T08:26:05;99120.13;;;22.40;54.20
67740;BME280;54536;50.090;14.420;2023-09-19T08:28:35;99122.31;;;22.43;53.74
67740;BME280;54536;50.090;14.420;2023-09-19T08:31:05;99125.34;;;22.53;53.71
67740;BME280;54536;50.090;14.420;2023-09-19T08:33:36;99134.16;;;22.60;53.37
67740;BME280;54536;50.090;14.420;2023-09-19T08:36:04;99123.09;;;22.50;53.45
67740;BME280;54536;50.090;14.420;2023-09-19T08:38:31;99117.81;;;22.43;53.59
67740;BME280;54536;50.090;14.420;2023-09-19T08:41:00;99121.69;;;22.48;53.56
67740;BME280;54536;50.090;14.420;2023-09-19T08:43:27;99125.00;;;22.43;53.29
67740;BME280;54536;50.090;14.420;2023-09-19T08:46:02;99132.59;;;22.46;53.48
67740;BME280;54536;50.090;14.420;2023-09-19T08:48:31;99138.06;;;22.58;53.01
67740;BME280;54536;50.090;14.420;2023-09-19T08:51:03;99132.28;;;22.61;53.17
67740;BME280;54536;50.090;14.420;2023-09-19T08:53:32;99137.03;;;22.59;52.80
67740;BME280;54536;50.090;14.420;2023-09-19T08:56:02;99142.31;;;22.65;52.55
67740;BME280;54536;50.090;14.420;2023-09-19T08:58:37;99146.00;;;22.71;53.01
67740;BME280;54536;50.090;14.420;2023-09-19T09:01:07;99152.84;;;22.67;52.14
67740;BME280;54536;50.090;14.420;2023-09-19T09:03:37;99147.25;;;22.68;52.34
67740;BME280;54536;50.090;14.420;2023-09-19T09:06:08;99152.97;;;22.72;52.26
67740;BME280;54536;50.090;14.420;2023-09-19T09:08:42;99163.38;;;22.87;52.21
67740;BME280;54536;50.090;14.420;2023-09-19T09:11:09;99160.25;;;22.90;51.64
67740;BME280;54536;50.090;14.420;2023-09-19T09:13:37;99156.31;;;22.93;51.48
67740;BME280;54536;50.090;14.420;2023-09-19T09:16:05;99147.47;;;23.10;51.20
67740;BME280;54536;50.090;14.420;2023-09-19T09:18:31;99157.88;;;23.37;50.46
67740;BME280;54536;50.090;14.420;2023-09-19T09:20:57;99154.38;;;23.36;50.31
67740;BME280;54536;50.090;14.420;2023-09-19T09:23:23;99156.47;;;23.34;50.33
67740;BME280;54536;50.090;14.420;2023-09-19T09:25:55;99156.09;;;23.31;50.60
67740;BME280;54536;50.090;14.420;2023-09-19T09:28:48;99158.41;;;23.27;51.13
67740;BME280;54536;50.090;14.420;2023-09-19T09:31:23;99153.34;;;23.19;50.58
67740;BME280;54536;50.090;14.420;2023-09-19T09:33:56;99159.22;;;23.28;50.27
67740;BME280;54536;50.090;14.420;2023-09-19T09:36:38;99159.31;;;23.40;50.10
67740;BME280;54536;50.090;14.420;2023-09-19T09:39:05;99150.91;;;23.48;50.15
67740;BME280;54536;50.090;14.420;2023-09-19T09:41:51;99151.44;;;23.56;49.73
67740;BME280;54536;50.090;14.420;2023-09-19T09:44:18;99150.47;;;23.51;49.43
67740;BME280;54536;50.090;14.420;2023-09-19T09:46:46;99144.41;;;23.74;49.15
67740;BME280;54536;50.090;14.420;2023-09-19T09:49:26;99140.16;;;23.96;48.27
67740;BME280;54536;50.090;14.420;2023-09-19T09:52:04;99117.75;;;23.91;48.40
67740;BME280;54536;50.090;14.420;2023-09-19T09:54:35;99118.69;;;23.96;48.17
67740;BME280;54536;50.090;14.420;2023-09-19T09:57:07;99132.25;;;24.13;47.64
67740;BME280;54536;50.090;14.420;2023-09-19T09:59:59;99130.19;;;24.39;46.17
67740;BME280;54536;50.090;14.420;2023-09-19T10:02:38;99128.91;;;24.29;46.17
67740;BME280;54536;50.090;14.420;2023-09-19T10:05:16;99131.97;;;24.33;46.04
67740;BME280;54536;50.090;14.420;2023-09-19T10:07:52;99130.94;;;24.46;45.50
67740;BME280;54536;50.090;14.420;2023-09-19T10:10:36;99128.59;;;24.61;45.22
67740;BME280;54536;50.090;14.420;2023-09-19T10:13:11;99141.81;;;24.86;44.56
67740;BME280;54536;50.090;14.420;2023-09-19T10:15:47;99142.38;;;25.12;44.49
67740;BME280;54536;50.090;14.420;2023-09-19T10:18:22;99153.03;;;25.18;44.38
67740;BME280;54536;50.090;14.420;2023-09-19T10:20:49;99149.75;;;24.93;43.79
67740;BME280;54536;50.090;14.420;2023-09-19T10:23:19;99153.13;;;24.88;44.05
67740;BME280;54536;50.090;14.420;2023-09-19T10:25:50;99151.28;;;24.77;44.40
67740;BME280;54536;50.090;14.420;2023-09-19T10:28:18;99158.31;;;24.66;44.61
67740;BME280;54536;50.090;14.420;2023-09-19T10:30:50;99154.31;;;24.57;45.07
67740;BME280;54536;50.090;14.420;2023-09-19T10:33:19;99162.50;;;24.62;44.67
67740;BME280;54536;50.090;14.420;2023-09-19T10:35:52;99141.25;;;24.72;43.71
67740;BME280;54536;50.090;14.420;2023-09-19T10:38:26;99140.63;;;24.59;43.20
67740;BME280;54536;50.090;14.420;2023-09-19T10:40:56;99141.00;;;24.74;42.03
67740;BME280;54536;50.090;14.420;2023-09-19T10:43:30;99136.66;;;24.61;40.78
67740;BME280;54536;50.090;14.420;2023-09-19T10:46:01;99147.31;;;24.80;39.94
67740;BME280;54536;50.090;14.420;2023-09-19T10:48:31;99158.06;;;24.80;39.34
67740;BME280;54536;50.090;14.420;2023-09-19T10:53:31;99138.13;;;25.28;38.99
67740;BME280;54536;50.090;14.420;2023-09-19T10:56:07;99142.81;;;25.32;38.32
67740;BME280;54536;50.090;14.420;2023-09-19T10:58:40;99151.13;;;25.59;37.95
67740;BME280;54536;50.090;14.420;2023-09-19T11:01:11;99146.13;;;25.80;37.67
67740;BME280;54536;50.090;14.420;2023-09-19T11:03:38;99144.16;;;26.04;37.28
67740;BME280;54536;50.090;14.420;2023-09-19T11:06:17;99133.00;;;26.46;36.56
67740;BME280;54536;50.090;14.420;2023-09-19T11:08:55;99137.38;;;26.35;36.17
67740;BME280;54536;50.090;14.420;2023-09-19T11:11:44;99137.44;;;27.13;35.62
67740;BME280;54536;50.090;14.420;2023-09-19T11:30:43;99129.91;;;27.59;34.30
67740;BME280;54536;50.090;14.420;2023-09-19T11:36:09;99116.19;;;28.19;33.08
67740;BME280;54536;50.090;14.420;2023-09-19T11:43:48;99127.19;;;28.40;30.82
67740;BME280;54536;50.090;14.420;2023-09-19T11:46:17;99116.66;;;28.43;29.71
67740;BME280;54536;50.090;14.420;2023-09-19T11:48:48;99132.13;;;28.21;30.47
67740;BME280;54536;50.090;14.420;2023-09-19T11:51:23;99126.50;;;28.60;30.18
67740;BME280;54536;50.090;14.420;2023-09-19T11:53:57;99129.22;;;28.60;30.26
67740;BME280;54536;50.090;14.420;2023-09-19T11:56:27;99134.44;;;28.72;30.09
67740;BME280;54536;50.090;14.420;2023-09-19T11:58:55;99133.63;;;28.76;29.77
67740;BME280;54536;50.090;14.420;2023-09-19T12:01:31;99136.97;;;28.93;30.26
67740;BME280;54536;50.090;14.420;2023-09-19T12:03:59;99131.63;;;28.56;30.03
67740;BME280;54536;50.090;14.420;2023-09-19T12:06:28;99125.31;;;28.88;30.00
67740;BME280;54536;50.090;14.420;2023-09-19T12:08:56;99133.44;;;28.88;29.63
67740;BME280;54536;50.090;14.420;2023-09-19T12:11:30;99135.38;;;28.50;29.31
67740;BME280;54536;50.090;14.420;2023-09-19T12:13:59;99126.22;;;28.56;29.39
67740;BME280;54536;50.090;14.420;2023-09-19T12:16:30;99128.00;;;28.83;28.84
67740;BME280;54536;50.090;14.420;2023-09-19T12:19:19;99125.50;;;29.29;27.64
67740;BME280;54536;50.090;14.420;2023-09-19T12:21:58;99117.81;;;29.94;26.61
67740;BME280;54536;50.090;14.420;2023-09-19T12:24:27;99123.53;;;30.59;25.12
67740;BME280;54536;50.090;14.420;2023-09-19T12:27:03;99100.84;;;31.09;24.07
67740;BME280;54536;50.090;14.420;2023-09-19T12:29:47;99122.44;;;32.24;23.04
67740;BME280;54536;50.090;14.420;2023-09-19T12:32:41;99110.69;;;32.86;22.42
67740;BME280;54536;50.090;14.420;2023-09-19T12:35:08;99108.81;;;33.30;21.77
67740;BME280;54536;50.090;14.420;2023-09-19T12:37:43;99112.00;;;34.13;21.92
67740;BME280;54536;50.090;14.420;2023-09-19T12:40:14;99107.53;;;32.50;22.90
67740;BME280;54536;50.090;14.420;2023-09-19T12:42:48;99100.31;;;32.01;23.58
67740;BME280;54536;50.090;14.420;2023-09-19T12:45:17;99106.91;;;32.58;22.49
67740;BME280;54536;50.090;14.420;2023-09-19T12:48:19;99112.19;;;31.76;23.67
67740;BME280;54536;50.090;14.420;2023-09-19T12:51:05;99096.41;;;31.78;24.13
67740;BME280;54536;50.090;14.420;2023-09-19T12:53:34;99098.31;;;32.46;23.36
67740;BME280;54536;50.090;14.420;2023-09-19T12:56:03;99089.19;;;32.61;22.85
67740;BME280;54536;50.090;14.420;2023-09-19T12:58:47;99099.22;;;33.14;22.13
67740;BME280;54536;50.090;14.420;2023-09-19T13:01:15;99098.63;;;33.60;21.65
67740;BME280;54536;50.090;14.420;2023-09-19T13:03:42;99094.84;;;33.74;22.01
67740;BME280;54536;50.090;14.420;2023-09-19T13:06:08;99091.50;;;33.96;21.38
67740;BME280;54536;50.090;14.420;2023-09-19T13:08:39;99092.28;;;34.16;21.42
67740;BME280;54536;50.090;14.420;2023-09-19T13:11:10;99086.22;;;33.05;22.51
67740;BME280;54536;50.090;14.420;2023-09-19T13:13:41;99097.00;;;32.09;23.35
67740;BME280;54536;50.090;14.420;2023-09-19T13:16:09;99092.03;;;31.82;22.98
67740;BME280;54536;50.090;14.420;2023-09-19T13:18:44;99084.47;;;31.24;23.88
67740;BME280;54536;50.090;14.420;2023-09-19T13:21:14;99087.66;;;30.82;24.09
67740;BME280;54536;50.090;14.420;2023-09-19T13:23:51;99088.78;;;30.55;24.63
67740;BME280;54536;50.090;14.420;2023-09-19T13:26:18;99094.78;;;29.91;24.43
67740;BME280;54536;50.090;14.420;2023-09-19T13:28:45;99099.38;;;29.75;24.87
67740;BME280;54536;50.090;14.420;2023-09-19T13:31:13;99088.41;;;29.29;25.74
67740;BME280;54536;50.090;14.420;2023-09-19T13:33:44;99100.72;;;29.00;25.65
67740;BME280;54536;50.090;14.420;2023-09-19T13:36:14;99088.59;;;29.02;26.19
67740;BME280;54536;50.090;14.420;2023-09-19T13:38:41;99087.66;;;28.86;25.71
67740;BME280;54536;50.090;14.420;2023-09-19T13:41:11;99087.66;;;28.81;26.17
67740;BME280;54536;50.090;14.420;2023-09-19T13:43:37;99097.19;;;28.46;27.26
67740;BME280;54536;50.090;14.420;2023-09-19T13:46:05;99094.56;;;28.24;27.24